sensor_id;sensor_type;location;lat;lon;timestamp;temperature;humidity
24664;DHT22;12791;50.992;13.788;2023-02-02T00:00:15;4.80;99.90
24664;DHT22;12791;50.992;13.788;2023-02-02T00:02:42;4.60;99.90
24664;DHT22;12791;50.992;13.788;2023-02-02T00:05:09;4.50;99.90
24664;DHT22;12791;50.992;13.788;2023-02-02T00:07:36;4.60;99.90
24664;DHT22;12791;50.992;13.788;2023-02-02T00:10:05;4.50;99.90
24664;DHT22;12791;50.992;13.788;2023-02-02T00:12:31;4.90;99.90
24664;DHT22;12791;50.992;13.788;2023-02-02T00:14:58;4.70;99.90
24664;DHT22;12791;50.992;13.788;2023-02-02T00:17:25;4.60;99.90
24664;DHT22;12791;50.992;13.788;2023-02-02T00:19:51;4.60;99.90
24664;DHT22;12791;50.992;13.788;2023-02-02T00:22:18;4.40;99.90
24664;DHT22;12791;50.992;13.788;2023-02-02T00:24:44;4.60;99.90
24664;DHT22;12791;50.992;13.788;2023-02-02T00:27:12;4.70;99.90
24664;DHT22;12791;50.992;13.788;2023-02-02T00:29:39;4.70;99.90
24664;DHT22;12791;50.992;13.788;2023-02-02T00:32:06;4.70;99.90
24664;DHT22;12791;50.992;13.788;2023-02-02T00:34:32;4.60;99.90
24664;DHT22;12791;50.992;13.788;2023-02-02T00:36:59;4.70;99.90
24664;DHT22;12791;50.992;13.788;2023-02-02T00:39:26;4.60;99.90
24664;DHT22;12791;50.992;13.788;2023-02-02T00:41:52;4.60;99.90
24664;DHT22;12791;50.992;13.788;2023-02-02T00:44:20;4.60;99.90
24664;DHT22;12791;50.992;13.788;2023-02-02T00:47:05;4.60;99.90
24664;DHT22;12791;50.992;13.788;2023-02-02T00:49:31;4.60;99.90
24664;DHT22;12791;50.992;13.788;2023-02-02T00:51:58;4.40;99.90
24664;DHT22;12791;50.992;13.788;2023-02-02T00:54:25;4.60;99.90
24664;DHT22;12791;50.992;13.788;2023-02-02T00:56:52;4.50;99.90
24664;DHT22;12791;50.992;13.788;2023-02-02T00:59:20;4.60;99.90
24664;DHT22;12791;50.992;13.788;2023-02-02T01:01:46;4.80;99.90
24664;DHT22;12791;50.992;13.788;2023-02-02T01:04:13;4.50;99.90
24664;DHT22;12791;50.992;13.788;2023-02-02T01:06:40;4.60;99.90
24664;DHT22;12791;50.992;13.788;2023-02-02T01:09:06;4.60;99.90
24664;DHT22;12791;50.992;13.788;2023-02-02T01:11:33;4.60;99.90
24664;DHT22;12791;50.992;13.788;2023-02-02T01:14:00;4.70;99.90
24664;DHT22;12791;50.992;13.788;2023-02-02T01:16:28;4.60;99.90
24664;DHT22;12791;50.992;13.788;2023-02-02T01:18:55;4.60;99.90
24664;DHT22;12791;50.992;13.788;2023-02-02T01:21:22;4.60;99.90
24664;DHT22;12791;50.992;13.788;2023-02-02T01:23:48;4.60;99.90
24664;DHT22;12791;50.992;13.788;2023-02-02T01:26:16;4.70;99.90
24664;DHT22;12791;50.992;13.788;2023-02-02T01:28:43;4.80;99.90
24664;DHT22;12791;50.992;13.788;2023-02-02T01:31:11;4.50;99.90
24664;DHT22;12791;50.992;13.788;2023-02-02T01:33:39;4.60;99.90
24664;DHT22;12791;50.992;13.788;2023-02-02T01:36:09;4.70;99.90
24664;DHT22;12791;50.992;13.788;2023-02-02T01:38:36;4.60;99.90
24664;DHT22;12791;50.992;13.788;2023-02-02T01:41:03;4.60;99.90
24664;DHT22;12791;50.992;13.788;2023-02-02T01:43:53;4.60;99.90
24664;DHT22;12791;50.992;13.788;2023-02-02T01:46:21;4.60;99.90
24664;DHT22;12791;50.992;13.788;2023-02-02T01:48:52;4.60;99.90
24664;DHT22;12791;50.992;13.788;2023-02-02T01:51:22;4.60;99.90
24664;DHT22;12791;50.992;13.788;2023-02-02T01:53:52;4.80;99.90
24664;DHT22;12791;50.992;13.788;2023-02-02T01:56:24;4.70;99.90
24664;DHT22;12791;50.992;13.788;2023-02-02T01:58:52;4.80;99.90
24664;DHT22;12791;50.992;13.788;2023-02-02T02:01:19;4.90;99.90
24664;DHT22;12791;50.992;13.788;2023-02-02T02:03:45;4.70;99.90
24664;DHT22;12791;50.992;13.788;2023-02-02T02:06:17;4.70;99.90
24664;DHT22;12791;50.992;13.788;2023-02-02T02:08:47;4.70;99.90
24664;DHT22;12791;50.992;13.788;2023-02-02T02:11:16;4.90;99.90
24664;DHT22;12791;50.992;13.788;2023-02-02T02:13:43;4.80;99.90
24664;DHT22;12791;50.992;13.788;2023-02-02T02:16:36;4.80;99.90
24664;DHT22;12791;50.992;13.788;2023-02-02T02:19:20;4.80;99.90
24664;DHT22;12791;50.992;13.788;2023-02-02T02:22:00;4.70;99.90
24664;DHT22;12791;50.992;13.788;2023-02-02T02:25:10;4.70;99.90
24664;DHT22;12791;50.992;13.788;2023-02-02T02:28:11;4.70;99.90
24664;DHT22;12791;50.992;13.788;2023-02-02T02:31:16;4.70;99.90
24664;DHT22;12791;50.992;13.788;2023-02-02T02:33:49;5.00;99.90
24664;DHT22;12791;50.992;13.788;2023-02-02T02:36:27;4.70;99.90
24664;DHT22;12791;50.992;13.788;2023-02-02T02:39:03;4.70;99.90
24664;DHT22;12791;50.992;13.788;2023-02-02T02:41:36;4.90;99.90
24664;DHT22;12791;50.992;13.788;2023-02-02T02:44:07;4.80;99.90
24664;DHT22;12791;50.992;13.788;2023-02-02T02:46:36;4.70;99.90
24664;DHT22;12791;50.992;13.788;2023-02-02T02:49:07;4.90;99.90
24664;DHT22;12791;50.992;13.788;2023-02-02T02:51:41;4.70;99.90
24664;DHT22;12791;50.992;13.788;2023-02-02T02:54:29;4.90;99.90
24664;DHT22;12791;50.992;13.788;2023-02-02T02:57:10;4.90;99.90
24664;DHT22;12791;50.992;13.788;2023-02-02T02:59:50;4.70;99.90
24664;DHT22;12791;50.992;13.788;2023-02-02T03:02:31;4.70;99.90
24664;DHT22;12791;50.992;13.788;2023-02-02T03:05:07;4.90;99.90
24664;DHT22;12791;50.992;13.788;2023-02-02T03:07:41;4.90;99.90
24664;DHT22;12791;50.992;13.788;2023-02-02T03:10:10;5.00;99.90
24664;DHT22;12791;50.992;13.788;2023-02-02T03:12:43;4.80;99.90
24664;DHT22;12791;50.992;13.788;2023-02-02T03:15:11;5.00;99.90
24664;DHT22;12791;50.992;13.788;2023-02-02T03:17:38;4.70;99.90
24664;DHT22;12791;50.992;13.788;2023-02-02T03:20:08;4.90;99.90
24664;DHT22;12791;50.992;13.788;2023-02-02T03:22:34;5.00;99.90
24664;DHT22;12791;50.992;13.788;2023-02-02T03:25:01;4.80;99.90
24664;DHT22;12791;50.992;13.788;2023-02-02T03:27:28;5.00;99.90
24664;DHT22;12791;50.992;13.788;2023-02-02T03:29:55;5.00;99.90
24664;DHT22;12791;50.992;13.788;2023-02-02T03:32:21;4.90;99.90
24664;DHT22;12791;50.992;13.788;2023-02-02T03:34:48;5.00;99.90
24664;DHT22;12791;50.992;13.788;2023-02-02T03:37:16;4.90;99.90
24664;DHT22;12791;50.992;13.788;2023-02-02T03:39:43;4.80;99.90
24664;DHT22;12791;50.992;13.788;2023-02-02T03:42:09;4.90;99.90
24664;DHT22;12791;50.992;13.788;2023-02-02T03:44:36;5.10;99.90
24664;DHT22;12791;50.992;13.788;2023-02-02T03:47:03;5.00;99.90
24664;DHT22;12791;50.992;13.788;2023-02-02T03:49:29;4.90;99.90
24664;DHT22;12791;50.992;13.788;2023-02-02T03:51:56;4.80;99.90
24664;DHT22;12791;50.992;13.788;2023-02-02T03:54:24;4.70;99.90
24664;DHT22;12791;50.992;13.788;2023-02-02T03:56:51;4.90;99.90
24664;DHT22;12791;50.992;13.788;2023-02-02T03:59:17;5.10;99.90
24664;DHT22;12791;50.992;13.788;2023-02-02T04:01:44;5.00;99.90
24664;DHT22;12791;50.992;13.788;2023-02-02T04:04:11;5.20;99.90
24664;DHT22;12791;50.992;13.788;2023-02-02T04:06:37;4.80;99.90
24664;DHT22;12791;50.992;13.788;2023-02-02T04:09:04;5.00;99.90
24664;DHT22;12791;50.992;13.788;2023-02-02T04:11:32;4.90;99.90
24664;DHT22;12791;50.992;13.788;2023-02-02T04:13:59;5.00;99.90
24664;DHT22;12791;50.992;13.788;2023-02-02T04:16:25;4.90;99.90
24664;DHT22;12791;50.992;13.788;2023-02-02T04:18:52;4.90;99.90
24664;DHT22;12791;50.992;13.788;2023-02-02T04:21:19;4.90;99.90
24664;DHT22;12791;50.992;13.788;2023-02-02T04:23:45;5.00;99.90
24664;DHT22;12791;50.992;13.788;2023-02-02T04:26:12;4.90;99.90
24664;DHT22;12791;50.992;13.788;2023-02-02T04:28:40;4.90;99.90
24664;DHT22;12791;50.992;13.788;2023-02-02T04:31:06;4.90;99.90
24664;DHT22;12791;50.992;13.788;2023-02-02T04:33:33;4.80;99.90
24664;DHT22;12791;50.992;13.788;2023-02-02T04:36:00;4.90;99.90
24664;DHT22;12791;50.992;13.788;2023-02-02T04:38:27;5.00;99.90
24664;DHT22;12791;50.992;13.788;2023-02-02T04:40:54;4.90;99.90
24664;DHT22;12791;50.992;13.788;2023-02-02T04:43:20;4.80;99.90
24664;DHT22;12791;50.992;13.788;2023-02-02T04:45:53;4.90;99.90
24664;DHT22;12791;50.992;13.788;2023-02-02T04:48:20;5.00;99.90
24664;DHT22;12791;50.992;13.788;2023-02-02T04:50:47;5.00;99.90
24664;DHT22;12791;50.992;13.788;2023-02-02T04:53:13;4.90;99.90
24664;DHT22;12791;50.992;13.788;2023-02-02T04:55:40;5.00;99.90
24664;DHT22;12791;50.992;13.788;2023-02-02T04:58:07;5.00;99.90
24664;DHT22;12791;50.992;13.788;2023-02-02T05:00:34;5.00;99.90
24664;DHT22;12791;50.992;13.788;2023-02-02T05:03:02;4.90;99.90
24664;DHT22;12791;50.992;13.788;2023-02-02T05:05:28;4.90;99.90
24664;DHT22;12791;50.992;13.788;2023-02-02T05:07:55;5.00;99.90
24664;DHT22;12791;50.992;13.788;2023-02-02T05:10:22;4.90;99.90
24664;DHT22;12791;50.992;13.788;2023-02-02T05:12:51;5.10;99.90
24664;DHT22;12791;50.992;13.788;2023-02-02T05:15:18;5.10;99.90
24664;DHT22;12791;50.992;13.788;2023-02-02T05:17:45;5.00;99.90
24664;DHT22;12791;50.992;13.788;2023-02-02T05:20:14;4.90;99.90
24664;DHT22;12791;50.992;13.788;2023-02-02T05:22:41;4.90;99.90
24664;DHT22;12791;50.992;13.788;2023-02-02T05:25:08;5.00;99.90
24664;DHT22;12791;50.992;13.788;2023-02-02T05:27:35;4.80;99.90
24664;DHT22;12791;50.992;13.788;2023-02-02T05:30:02;4.80;99.90
24664;DHT22;12791;50.992;13.788;2023-02-02T05:32:29;4.80;99.90
24664;DHT22;12791;50.992;13.788;2023-02-02T05:34:56;4.80;99.90
24664;DHT22;12791;50.992;13.788;2023-02-02T05:37:24;4.80;99.90
24664;DHT22;12791;50.992;13.788;2023-02-02T05:39:50;4.80;99.90
24664;DHT22;12791;50.992;13.788;2023-02-02T05:42:18;4.70;99.90
24664;DHT22;12791;50.992;13.788;2023-02-02T05:44:44;4.80;99.90
24664;DHT22;12791;50.992;13.788;2023-02-02T05:47:11;4.90;99.90
24664;DHT22;12791;50.992;13.788;2023-02-02T05:49:38;4.80;99.90
24664;DHT22;12791;50.992;13.788;2023-02-02T05:52:04;4.80;99.90
24664;DHT22;12791;50.992;13.788;2023-02-02T05:54:32;4.90;99.90
24664;DHT22;12791;50.992;13.788;2023-02-02T05:56:59;4.90;99.90
24664;DHT22;12791;50.992;13.788;2023-02-02T05:59:27;4.90;99.90
24664;DHT22;12791;50.992;13.788;2023-02-02T06:01:54;4.90;99.90
24664;DHT22;12791;50.992;13.788;2023-02-02T06:04:20;4.90;99.90
24664;DHT22;12791;50.992;13.788;2023-02-02T06:06:47;4.90;99.90
24664;DHT22;12791;50.992;13.788;2023-02-02T06:09:14;4.90;99.90
24664;DHT22;12791;50.992;13.788;2023-02-02T06:11:43;5.00;99.90
24664;DHT22;12791;50.992;13.788;2023-02-02T06:14:11;4.90;99.90
24664;DHT22;12791;50.992;13.788;2023-02-02T06:16:37;5.10;99.90
24664;DHT22;12791;50.992;13.788;2023-02-02T06:19:04;5.20;99.90
24664;DHT22;12791;50.992;13.788;2023-02-02T06:21:31;4.90;99.90
24664;DHT22;12791;50.992;13.788;2023-02-02T06:23:58;4.90;99.90
24664;DHT22;12791;50.992;13.788;2023-02-02T06:26:26;5.10;99.90
24664;DHT22;12791;50.992;13.788;2023-02-02T06:28:55;5.00;99.90
24664;DHT22;12791;50.992;13.788;2023-02-02T06:31:22;4.40;99.90
24664;DHT22;12791;50.992;13.788;2023-02-02T06:33:53;4.80;99.90
24664;DHT22;12791;50.992;13.788;2023-02-02T06:36:20;5.00;99.90
24664;DHT22;12791;50.992;13.788;2023-02-02T06:38:48;4.90;99.90
24664;DHT22;12791;50.992;13.788;2023-02-02T06:41:15;5.10;99.90
24664;DHT22;12791;50.992;13.788;2023-02-02T06:43:42;5.10;99.90
24664;DHT22;12791;50.992;13.788;2023-02-02T06:46:10;4.80;99.90
24664;DHT22;12791;50.992;13.788;2023-02-02T06:48:37;4.90;99.90
24664;DHT22;12791;50.992;13.788;2023-02-02T06:51:04;4.80;99.90
24664;DHT22;12791;50.992;13.788;2023-02-02T06:53:31;4.90;99.90
24664;DHT22;12791;50.992;13.788;2023-02-02T06:55:59;4.40;99.90
24664;DHT22;12791;50.992;13.788;2023-02-02T06:58:27;4.90;99.90
24664;DHT22;12791;50.992;13.788;2023-02-02T07:00:54;4.80;99.90
24664;DHT22;12791;50.992;13.788;2023-02-02T07:03:22;4.90;99.90
24664;DHT22;12791;50.992;13.788;2023-02-02T07:05:48;4.70;99.90
24664;DHT22;12791;50.992;13.788;2023-02-02T07:08:15;5.10;99.90
24664;DHT22;12791;50.992;13.788;2023-02-02T07:10:42;4.80;99.90
24664;DHT22;12791;50.992;13.788;2023-02-02T07:13:09;5.00;99.90
24664;DHT22;12791;50.992;13.788;2023-02-02T07:15:37;4.70;99.90
24664;DHT22;12791;50.992;13.788;2023-02-02T07:18:04;4.80;99.90
24664;DHT22;12791;50.992;13.788;2023-02-02T07:20:32;4.90;99.90
24664;DHT22;12791;50.992;13.788;2023-02-02T07:22:59;4.60;99.90
24664;DHT22;12791;50.992;13.788;2023-02-02T07:25:28;4.80;99.90
24664;DHT22;12791;50.992;13.788;2023-02-02T07:27:55;4.90;99.90
24664;DHT22;12791;50.992;13.788;2023-02-02T07:30:22;4.90;99.90
24664;DHT22;12791;50.992;13.788;2023-02-02T07:32:50;4.90;99.90
24664;DHT22;12791;50.992;13.788;2023-02-02T07:35:16;4.90;99.90
24664;DHT22;12791;50.992;13.788;2023-02-02T07:37:50;5.20;99.90
24664;DHT22;12791;50.992;13.788;2023-02-02T07:40:17;4.90;99.90
24664;DHT22;12791;50.992;13.788;2023-02-02T07:42:45;5.10;99.90
24664;DHT22;12791;50.992;13.788;2023-02-02T07:45:11;5.00;99.90
24664;DHT22;12791;50.992;13.788;2023-02-02T07:47:38;5.00;99.90
24664;DHT22;12791;50.992;13.788;2023-02-02T07:50:05;5.00;99.90
24664;DHT22;12791;50.992;13.788;2023-02-02T07:52:32;5.00;99.90
24664;DHT22;12791;50.992;13.788;2023-02-02T07:55:00;4.80;99.90
24664;DHT22;12791;50.992;13.788;2023-02-02T07:57:27;4.80;99.90
24664;DHT22;12791;50.992;13.788;2023-02-02T07:59:53;4.40;99.90
24664;DHT22;12791;50.992;13.788;2023-02-02T08:02:20;5.00;99.90
24664;DHT22;12791;50.992;13.788;2023-02-02T08:04:46;4.90;99.90
24664;DHT22;12791;50.992;13.788;2023-02-02T08:07:13;5.00;99.90
24664;DHT22;12791;50.992;13.788;2023-02-02T08:09:44;5.00;99.90
24664;DHT22;12791;50.992;13.788;2023-02-02T08:12:12;4.90;99.90
24664;DHT22;12791;50.992;13.788;2023-02-02T08:14:39;4.70;99.90
24664;DHT22;12791;50.992;13.788;2023-02-02T08:17:06;4.70;99.90
24664;DHT22;12791;50.992;13.788;2023-02-02T08:19:33;5.30;99.90
24664;DHT22;12791;50.992;13.788;2023-02-02T08:22:00;5.00;99.90
24664;DHT22;12791;50.992;13.788;2023-02-02T08:24:26;4.70;99.90
24664;DHT22;12791;50.992;13.788;2023-02-02T08:26:53;5.00;99.90
24664;DHT22;12791;50.992;13.788;2023-02-02T08:29:21;5.00;99.90
24664;DHT22;12791;50.992;13.788;2023-02-02T08:31:51;5.00;99.90
24664;DHT22;12791;50.992;13.788;2023-02-02T08:34:19;5.00;99.90
24664;DHT22;12791;50.992;13.788;2023-02-02T08:36:45;5.10;99.90
24664;DHT22;12791;50.992;13.788;2023-02-02T08:39:12;5.00;99.90
24664;DHT22;12791;50.992;13.788;2023-02-02T08:41:39;5.00;99.90
24664;DHT22;12791;50.992;13.788;2023-02-02T08:44:06;4.80;99.90
24664;DHT22;12791;50.992;13.788;2023-02-02T08:46:34;5.00;99.90
24664;DHT22;12791;50.992;13.788;2023-02-02T08:49:01;5.30;99.90
24664;DHT22;12791;50.992;13.788;2023-02-02T08:51:27;5.10;99.90
24664;DHT22;12791;50.992;13.788;2023-02-02T08:53:54;5.30;99.90
24664;DHT22;12791;50.992;13.788;2023-02-02T08:56:21;5.20;99.90
24664;DHT22;12791;50.992;13.788;2023-02-02T08:58:50;5.20;99.90
24664;DHT22;12791;50.992;13.788;2023-02-02T09:01:19;5.10;99.90
24664;DHT22;12791;50.992;13.788;2023-02-02T09:03:47;5.30;99.90
24664;DHT22;12791;50.992;13.788;2023-02-02T09:06:15;5.10;99.90
24664;DHT22;12791;50.992;13.788;2023-02-02T09:08:42;4.80;99.90
24664;DHT22;12791;50.992;13.788;2023-02-02T09:11:11;4.70;99.90
24664;DHT22;12791;50.992;13.788;2023-02-02T09:13:39;5.10;99.90
24664;DHT22;12791;50.992;13.788;2023-02-02T09:16:09;5.00;99.90
24664;DHT22;12791;50.992;13.788;2023-02-02T09:18:36;5.10;99.90
24664;DHT22;12791;50.992;13.788;2023-02-02T09:21:05;5.30;99.90
24664;DHT22;12791;50.992;13.788;2023-02-02T09:23:34;5.20;99.90
24664;DHT22;12791;50.992;13.788;2023-02-02T09:26:08;5.20;99.90
24664;DHT22;12791;50.992;13.788;2023-02-02T09:28:34;5.10;99.90
24664;DHT22;12791;50.992;13.788;2023-02-02T09:31:01;5.00;99.90
24664;DHT22;12791;50.992;13.788;2023-02-02T09:33:28;5.10;99.90
24664;DHT22;12791;50.992;13.788;2023-02-02T09:35:55;5.20;99.90
24664;DHT22;12791;50.992;13.788;2023-02-02T09:38:23;5.20;99.90
24664;DHT22;12791;50.992;13.788;2023-02-02T09:40:49;5.10;99.90
24664;DHT22;12791;50.992;13.788;2023-02-02T09:43:27;5.10;99.90
24664;DHT22;12791;50.992;13.788;2023-02-02T09:46:07;5.30;99.90
24664;DHT22;12791;50.992;13.788;2023-02-02T09:48:43;5.20;99.90
24664;DHT22;12791;50.992;13.788;2023-02-02T09:51:14;4.70;99.90
24664;DHT22;12791;50.992;13.788;2023-02-02T09:53:48;5.20;99.90
24664;DHT22;12791;50.992;13.788;2023-02-02T09:56:21;5.00;99.90
24664;DHT22;12791;50.992;13.788;2023-02-02T09:58:52;4.90;99.90
24664;DHT22;12791;50.992;13.788;2023-02-02T10:01:23;5.30;99.90
24664;DHT22;12791;50.992;13.788;2023-02-02T10:03:57;5.10;99.90
24664;DHT22;12791;50.992;13.788;2023-02-02T10:06:31;5.00;99.90
24664;DHT22;12791;50.992;13.788;2023-02-02T10:09:05;5.00;99.90
24664;DHT22;12791;50.992;13.788;2023-02-02T10:11:36;5.00;99.90
24664;DHT22;12791;50.992;13.788;2023-02-02T10:14:08;5.00;99.90
24664;DHT22;12791;50.992;13.788;2023-02-02T10:16:37;5.00;99.90
24664;DHT22;12791;50.992;13.788;2023-02-02T10:19:08;5.00;99.90
24664;DHT22;12791;50.992;13.788;2023-02-02T10:21:42;5.00;99.90
24664;DHT22;12791;50.992;13.788;2023-02-02T10:24:17;5.00;99.90
24664;DHT22;12791;50.992;13.788;2023-02-02T10:26:46;5.00;99.90
24664;DHT22;12791;50.992;13.788;2023-02-02T10:29:16;5.00;99.90
24664;DHT22;12791;50.992;13.788;2023-02-02T10:31:49;5.10;99.90
24664;DHT22;12791;50.992;13.788;2023-02-02T10:34:24;5.20;99.90
24664;DHT22;12791;50.992;13.788;2023-02-02T10:37:07;4.80;99.90
24664;DHT22;12791;50.992;13.788;2023-02-02T10:39:46;5.00;99.90
24664;DHT22;12791;50.992;13.788;2023-02-02T10:42:22;5.00;99.90
24664;DHT22;12791;50.992;13.788;2023-02-02T10:44:54;5.00;99.90
24664;DHT22;12791;50.992;13.788;2023-02-02T10:47:24;5.10;99.90
24664;DHT22;12791;50.992;13.788;2023-02-02T10:49:59;5.20;99.90
24664;DHT22;12791;50.992;13.788;2023-02-02T10:52:31;4.90;99.90
24664;DHT22;12791;50.992;13.788;2023-02-02T10:55:02;5.00;99.90
24664;DHT22;12791;50.992;13.788;2023-02-02T10:57:38;5.10;99.90
24664;DHT22;12791;50.992;13.788;2023-02-02T11:00:17;5.10;99.90
24664;DHT22;12791;50.992;13.788;2023-02-02T11:02:46;4.70;99.90
24664;DHT22;12791;50.992;13.788;2023-02-02T11:05:18;5.00;99.90
24664;DHT22;12791;50.992;13.788;2023-02-02T11:08:11;5.10;99.90
24664;DHT22;12791;50.992;13.788;2023-02-02T11:10:40;5.10;99.90
24664;DHT22;12791;50.992;13.788;2023-02-02T11:13:13;5.00;99.90
24664;DHT22;12791;50.992;13.788;2023-02-02T11:15:41;5.10;99.90
24664;DHT22;12791;50.992;13.788;2023-02-02T11:18:26;5.20;99.90
24664;DHT22;12791;50.992;13.788;2023-02-02T11:20:54;5.20;99.90
24664;DHT22;12791;50.992;13.788;2023-02-02T11:23:21;5.20;99.90
24664;DHT22;12791;50.992;13.788;2023-02-02T11:25:58;5.20;99.90
24664;DHT22;12791;50.992;13.788;2023-02-02T11:28:34;5.30;99.90
24664;DHT22;12791;50.992;13.788;2023-02-02T11:31:01;5.20;99.90
24664;DHT22;12791;50.992;13.788;2023-02-02T11:33:29;5.10;99.90
24664;DHT22;12791;50.992;13.788;2023-02-02T11:35:59;5.20;99.90
24664;DHT22;12791;50.992;13.788;2023-02-02T11:38:26;5.40;99.90
24664;DHT22;12791;50.992;13.788;2023-02-02T11:40:57;5.40;99.90
24664;DHT22;12791;50.992;13.788;2023-02-02T11:43:28;5.40;99.90
24664;DHT22;12791;50.992;13.788;2023-02-02T11:45:58;4.90;99.90
24664;DHT22;12791;50.992;13.788;2023-02-02T11:48:30;5.30;99.90
24664;DHT22;12791;50.992;13.788;2023-02-02T11:50:59;5.50;99.90
24664;DHT22;12791;50.992;13.788;2023-02-02T11:53:28;4.90;99.90
24664;DHT22;12791;50.992;13.788;2023-02-02T11:55:58;5.40;99.90
24664;DHT22;12791;50.992;13.788;2023-02-02T11:58:26;5.40;99.90
24664;DHT22;12791;50.992;13.788;2023-02-02T12:00:59;5.30;99.90
24664;DHT22;12791;50.992;13.788;2023-02-02T12:03:30;5.10;99.90
24664;DHT22;12791;50.992;13.788;2023-02-02T12:05:57;5.50;99.90
24664;DHT22;12791;50.992;13.788;2023-02-02T12:08:26;5.40;99.90
24664;DHT22;12791;50.992;13.788;2023-02-02T12:10:58;5.50;99.90
24664;DHT22;12791;50.992;13.788;2023-02-02T12:13:38;5.40;99.90
24664;DHT22;12791;50.992;13.788;2023-02-02T12:16:18;5.70;99.90
24664;DHT22;12791;50.992;13.788;2023-02-02T12:18:57;5.50;99.90
24664;DHT22;12791;50.992;13.788;2023-02-02T12:21:34;5.50;99.90
24664;DHT22;12791;50.992;13.788;2023-02-02T12:24:15;5.40;99.90
24664;DHT22;12791;50.992;13.788;2023-02-02T12:26:49;5.00;99.90
24664;DHT22;12791;50.992;13.788;2023-02-02T12:29:29;5.60;99.90
24664;DHT22;12791;50.992;13.788;2023-02-02T12:32:12;5.60;99.90
24664;DHT22;12791;50.992;13.788;2023-02-02T12:34:49;5.00;99.90
24664;DHT22;12791;50.992;13.788;2023-02-02T12:37:29;5.30;99.90
24664;DHT22;12791;50.992;13.788;2023-02-02T12:40:13;4.90;99.90
24664;DHT22;12791;50.992;13.788;2023-02-02T12:42:55;5.10;99.90
24664;DHT22;12791;50.992;13.788;2023-02-02T12:45:50;5.40;99.90
24664;DHT22;12791;50.992;13.788;2023-02-02T12:48:38;5.50;99.90
24664;DHT22;12791;50.992;13.788;2023-02-02T12:51:22;5.80;99.90
24664;DHT22;12791;50.992;13.788;2023-02-02T12:54:04;5.40;99.90
24664;DHT22;12791;50.992;13.788;2023-02-02T12:56:39;5.60;99.90
24664;DHT22;12791;50.992;13.788;2023-02-02T12:59:17;5.60;99.90
24664;DHT22;12791;50.992;13.788;2023-02-02T13:01:56;5.50;99.90
24664;DHT22;12791;50.992;13.788;2023-02-02T13:04:41;5.50;99.90
24664;DHT22;12791;50.992;13.788;2023-02-02T13:07:31;5.60;99.90
24664;DHT22;12791;50.992;13.788;2023-02-02T13:10:07;5.50;99.90
24664;DHT22;12791;50.992;13.788;2023-02-02T13:12:40;5.50;99.90
24664;DHT22;12791;50.992;13.788;2023-02-02T13:15:12;5.40;99.90
24664;DHT22;12791;50.992;13.788;2023-02-02T13:17:42;5.50;99.90
24664;DHT22;12791;50.992;13.788;2023-02-02T13:20:21;5.40;99.90
24664;DHT22;12791;50.992;13.788;2023-02-02T13:22:52;5.50;99.90
24664;DHT22;12791;50.992;13.788;2023-02-02T13:25:24;5.70;99.90
24664;DHT22;12791;50.992;13.788;2023-02-02T13:27:52;5.40;99.90
24664;DHT22;12791;50.992;13.788;2023-02-02T13:30:27;5.20;99.90
24664;DHT22;12791;50.992;13.788;2023-02-02T13:32:58;5.60;99.90
24664;DHT22;12791;50.992;13.788;2023-02-02T13:35:32;5.70;99.90
24664;DHT22;12791;50.992;13.788;2023-02-02T13:38:06;5.30;99.90
24664;DHT22;12791;50.992;13.788;2023-02-02T13:40:39;5.80;99.90
24664;DHT22;12791;50.992;13.788;2023-02-02T13:43:17;5.70;99.90
24664;DHT22;12791;50.992;13.788;2023-02-02T13:45:57;5.90;99.90
24664;DHT22;12791;50.992;13.788;2023-02-02T13:48:33;5.80;99.90
24664;DHT22;12791;50.992;13.788;2023-02-02T13:51:21;5.80;99.90
24664;DHT22;12791;50.992;13.788;2023-02-02T13:54:10;5.80;99.90
24664;DHT22;12791;50.992;13.788;2023-02-02T13:56:50;5.70;99.90
24664;DHT22;12791;50.992;13.788;2023-02-02T14:02:20;5.80;99.90
24664;DHT22;12791;50.992;13.788;2023-02-02T14:04:54;5.70;99.90
24664;DHT22;12791;50.992;13.788;2023-02-02T14:07:36;5.60;99.90
24664;DHT22;12791;50.992;13.788;2023-02-02T14:10:04;5.70;99.90
24664;DHT22;12791;50.992;13.788;2023-02-02T14:12:33;5.50;99.90
24664;DHT22;12791;50.992;13.788;2023-02-02T14:15:00;5.70;99.90
24664;DHT22;12791;50.992;13.788;2023-02-02T14:17:52;5.50;99.90
24664;DHT22;12791;50.992;13.788;2023-02-02T14:20:43;5.40;99.90
24664;DHT22;12791;50.992;13.788;2023-02-02T14:28:58;5.70;99.90
24664;DHT22;12791;50.992;13.788;2023-02-02T14:31:28;5.60;99.90
24664;DHT22;12791;50.992;13.788;2023-02-02T14:34:26;5.70;99.90
24664;DHT22;12791;50.992;13.788;2023-02-02T14:37:16;5.30;99.90
24664;DHT22;12791;50.992;13.788;2023-02-02T14:39:52;5.60;99.90
24664;DHT22;12791;50.992;13.788;2023-02-02T14:42:33;5.20;99.90
24664;DHT22;12791;50.992;13.788;2023-02-02T14:45:26;5.70;99.90
24664;DHT22;12791;50.992;13.788;2023-02-02T14:47:53;5.70;99.90
24664;DHT22;12791;50.992;13.788;2023-02-02T14:50:40;5.60;99.90
24664;DHT22;12791;50.992;13.788;2023-02-02T14:53:17;5.20;99.90
24664;DHT22;12791;50.992;13.788;2023-02-02T14:55:57;5.70;99.90
24664;DHT22;12791;50.992;13.788;2023-02-02T14:58:28;5.60;99.90
24664;DHT22;12791;50.992;13.788;2023-02-02T15:01:00;5.60;99.90
24664;DHT22;12791;50.992;13.788;2023-02-02T15:03:33;5.70;99.90
24664;DHT22;12791;50.992;13.788;2023-02-02T15:06:13;5.50;99.90
24664;DHT22;12791;50.992;13.788;2023-02-02T15:12:13;5.50;99.90
24664;DHT22;12791;50.992;13.788;2023-02-02T15:14:42;5.50;99.90
24664;DHT22;12791;50.992;13.788;2023-02-02T15:17:19;5.70;99.90
24664;DHT22;12791;50.992;13.788;2023-02-02T15:19:52;5.60;99.90
24664;DHT22;12791;50.992;13.788;2023-02-02T15:22:29;5.40;99.90
24664;DHT22;12791;50.992;13.788;2023-02-02T15:24:58;5.40;99.90
24664;DHT22;12791;50.992;13.788;2023-02-02T15:27:27;5.70;99.90
24664;DHT22;12791;50.992;13.788;2023-02-02T15:29:57;5.50;99.90
24664;DHT22;12791;50.992;13.788;2023-02-02T15:32:27;5.50;99.90
24664;DHT22;12791;50.992;13.788;2023-02-02T15:34:58;5.40;99.90
24664;DHT22;12791;50.992;13.788;2023-02-02T15:37:31;4.90;99.90
24664;DHT22;12791;50.992;13.788;2023-02-02T15:40:10;5.30;99.90
24664;DHT22;12791;50.992;13.788;2023-02-02T15:42:41;5.30;99.90
24664;DHT22;12791;50.992;13.788;2023-02-02T15:45:36;5.00;99.90
24664;DHT22;12791;50.992;13.788;2023-02-02T15:48:20;5.30;99.90
24664;DHT22;12791;50.992;13.788;2023-02-02T15:50:48;5.30;99.90
24664;DHT22;12791;50.992;13.788;2023-02-02T15:53:23;4.80;99.90
24664;DHT22;12791;50.992;13.788;2023-02-02T15:55:51;5.40;99.90
24664;DHT22;12791;50.992;13.788;2023-02-02T15:58:23;5.30;99.90
24664;DHT22;12791;50.992;13.788;2023-02-02T16:01:02;4.70;99.90
24664;DHT22;12791;50.992;13.788;2023-02-02T16:03:47;4.90;99.90
24664;DHT22;12791;50.992;13.788;2023-02-02T16:06:16;5.20;99.90